sensor_id;sensor_type;location;lat;lon;timestamp;P1;durP1;ratioP1;P2;durP2;ratioP2
76035;SDS011;64732;56.314;44.068;2024-02-26T00:02:06;0.60;;;0.60;;
76035;SDS011;64732;56.314;44.068;2024-02-26T00:04:26;0.50;;;0.50;;
76035;SDS011;64732;56.314;44.068;2024-02-26T00:06:47;0.40;;;0.30;;
76035;SDS011;64732;56.314;44.068;2024-02-26T00:09:08;2.42;;;0.80;;
76035;SDS011;64732;56.314;44.068;2024-02-26T00:11:31;0.98;;;0.73;;
76035;SDS011;64732;56.314;44.068;2024-02-26T00:13:52;2.38;;;0.50;;
76035;SDS011;64732;56.314;44.068;2024-02-26T00:16:12;0.60;;;0.40;;
76035;SDS011;64732;56.314;44.068;2024-02-26T00:18:33;0.70;;;0.60;;
76035;SDS011;64732;56.314;44.068;2024-02-26T00:20:53;0.73;;;0.70;;
76035;SDS011;64732;56.314;44.068;2024-02-26T00:23:14;0.60;;;0.60;;
76035;SDS011;64732;56.314;44.068;2024-02-26T00:25:35;1.42;;;1.33;;
76035;SDS011;64732;56.314;44.068;2024-02-26T00:27:58;1.60;;;0.90;;
76035;SDS011;64732;56.314;44.068;2024-02-26T00:30:19;0.30;;;0.30;;
76035;SDS011;64732;56.314;44.068;2024-02-26T00:32:40;3.72;;;0.95;;
76035;SDS011;64732;56.314;44.068;2024-02-26T00:35:00;0.68;;;0.60;;
76035;SDS011;64732;56.314;44.068;2024-02-26T00:37:21;4.75;;;0.90;;
76035;SDS011;64732;56.314;44.068;2024-02-26T00:39:42;1.23;;;0.80;;
76035;SDS011;64732;56.314;44.068;2024-02-26T00:42:02;2.58;;;1.05;;
76035;SDS011;64732;56.314;44.068;2024-02-26T00:44:25;0.63;;;0.60;;
76035;SDS011;64732;56.314;44.068;2024-02-26T00:46:46;0.73;;;0.60;;
76035;SDS011;64732;56.314;44.068;2024-02-26T00:49:07;1.90;;;0.88;;
76035;SDS011;64732;56.314;44.068;2024-02-26T00:51:27;2.75;;;0.95;;
76035;SDS011;64732;56.314;44.068;2024-02-26T00:53:48;0.45;;;0.40;;
76035;SDS011;64732;56.314;44.068;2024-02-26T00:56:08;0.52;;;0.50;;
76035;SDS011;64732;56.314;44.068;2024-02-26T00:58:29;0.85;;;0.43;;
76035;SDS011;64732;56.314;44.068;2024-02-26T01:00:52;0.73;;;0.47;;
76035;SDS011;64732;56.314;44.068;2024-02-26T01:03:15;1.90;;;0.95;;
76035;SDS011;64732;56.314;44.068;2024-02-26T01:05:35;1.30;;;0.77;;
76035;SDS011;64732;56.314;44.068;2024-02-26T01:07:56;0.50;;;0.30;;
76035;SDS011;64732;56.314;44.068;2024-02-26T01:10:17;1.80;;;0.98;;
76035;SDS011;64732;56.314;44.068;2024-02-26T01:12:38;2.30;;;0.90;;
76035;SDS011;64732;56.314;44.068;2024-02-26T01:14:58;2.95;;;2.67;;
76035;SDS011;64732;56.314;44.068;2024-02-26T01:17:22;1.98;;;0.90;;
76035;SDS011;64732;56.314;44.068;2024-02-26T01:19:42;1.40;;;0.80;;
76035;SDS011;64732;56.314;44.068;2024-02-26T01:22:03;0.63;;;0.63;;
76035;SDS011;64732;56.314;44.068;2024-02-26T01:24:24;2.28;;;1.13;;
76035;SDS011;64732;56.314;44.068;2024-02-26T01:26:44;0.90;;;0.70;;
76035;SDS011;64732;56.314;44.068;2024-02-26T01:29:05;0.82;;;0.77;;
76035;SDS011;64732;56.314;44.068;2024-02-26T01:31:26;0.73;;;0.57;;
76035;SDS011;64732;56.314;44.068;2024-02-26T01:33:49;0.65;;;0.60;;
76035;SDS011;64732;56.314;44.068;2024-02-26T01:36:09;1.60;;;1.23;;
76035;SDS011;64732;56.314;44.068;2024-02-26T01:38:30;0.60;;;0.60;;
76035;SDS011;64732;56.314;44.068;2024-02-26T01:40:51;0.55;;;0.47;;
76035;SDS011;64732;56.314;44.068;2024-02-26T01:43:12;0.63;;;0.60;;
76035;SDS011;64732;56.314;44.068;2024-02-26T01:45:32;1.83;;;1.00;;
76035;SDS011;64732;56.314;44.068;2024-02-26T01:47:53;1.30;;;1.10;;
76035;SDS011;64732;56.314;44.068;2024-02-26T01:50:17;0.57;;;0.50;;
76035;SDS011;64732;56.314;44.068;2024-02-26T01:52:38;4.45;;;2.33;;
76035;SDS011;64732;56.314;44.068;2024-02-26T01:54:58;3.50;;;0.80;;
76035;SDS011;64732;56.314;44.068;2024-02-26T01:57:19;1.92;;;1.67;;
76035;SDS011;64732;56.314;44.068;2024-02-26T01:59:40;0.65;;;0.47;;
76035;SDS011;64732;56.314;44.068;2024-02-26T02:02:02;6.15;;;1.08;;
76035;SDS011;64732;56.314;44.068;2024-02-26T02:04:24;2.15;;;0.88;;
76035;SDS011;64732;56.314;44.068;2024-02-26T02:06:47;0.47;;;0.47;;
76035;SDS011;64732;56.314;44.068;2024-02-26T02:09:08;1.85;;;0.50;;
76035;SDS011;64732;56.314;44.068;2024-02-26T02:11:28;3.00;;;1.45;;
76035;SDS011;64732;56.314;44.068;2024-02-26T02:13:49;1.80;;;1.48;;
76035;SDS011;64732;56.314;44.068;2024-02-26T02:16:10;0.47;;;0.47;;
76035;SDS011;64732;56.314;44.068;2024-02-26T02:18:30;1.23;;;0.88;;
76035;SDS011;64732;56.314;44.068;2024-02-26T02:20:54;6.40;;;1.10;;
76035;SDS011;64732;56.314;44.068;2024-02-26T02:23:14;2.92;;;2.42;;
76035;SDS011;64732;56.314;44.068;2024-02-26T02:25:35;3.47;;;1.20;;
76035;SDS011;64732;56.314;44.068;2024-02-26T02:27:56;1.00;;;0.70;;
76035;SDS011;64732;56.314;44.068;2024-02-26T02:30:17;3.13;;;1.15;;
76035;SDS011;64732;56.314;44.068;2024-02-26T02:32:37;1.02;;;0.70;;
76035;SDS011;64732;56.314;44.068;2024-02-26T02:34:59;1.05;;;0.70;;
76035;SDS011;64732;56.314;44.068;2024-02-26T02:37:23;5.18;;;1.40;;
76035;SDS011;64732;56.314;44.068;2024-02-26T02:39:43;0.88;;;0.77;;
76035;SDS011;64732;56.314;44.068;2024-02-26T02:42:04;0.73;;;0.60;;
76035;SDS011;64732;56.314;44.068;2024-02-26T02:44:25;1.50;;;1.05;;
76035;SDS011;64732;56.314;44.068;2024-02-26T02:46:45;1.70;;;1.10;;
76035;SDS011;64732;56.314;44.068;2024-02-26T02:49:08;1.92;;;0.80;;
76035;SDS011;64732;56.314;44.068;2024-02-26T02:51:28;2.60;;;1.95;;
76035;SDS011;64732;56.314;44.068;2024-02-26T02:53:51;3.28;;;1.88;;
76035;SDS011;64732;56.314;44.068;2024-02-26T02:56:12;1.55;;;0.73;;
76035;SDS011;64732;56.314;44.068;2024-02-26T02:58:33;2.45;;;0.75;;
76035;SDS011;64732;56.314;44.068;2024-02-26T03:00:53;0.55;;;0.55;;
76035;SDS011;64732;56.314;44.068;2024-02-26T03:03:14;3.00;;;1.63;;
76035;SDS011;64732;56.314;44.068;2024-02-26T03:05:35;3.17;;;1.77;;
76035;SDS011;64732;56.314;44.068;2024-02-26T03:07:55;1.25;;;0.85;;
76035;SDS011;64732;56.314;44.068;2024-02-26T03:10:18;1.25;;;0.85;;
76035;SDS011;64732;56.314;44.068;2024-02-26T03:12:39;2.08;;;0.90;;
76035;SDS011;64732;56.314;44.068;2024-02-26T03:15:00;4.57;;;1.13;;
76035;SDS011;64732;56.314;44.068;2024-02-26T03:17:21;3.22;;;0.80;;
76035;SDS011;64732;56.314;44.068;2024-02-26T03:19:41;1.77;;;1.02;;
76035;SDS011;64732;56.314;44.068;2024-02-26T03:22:02;8.75;;;1.38;;
76035;SDS011;64732;56.314;44.068;2024-02-26T03:24:22;0.73;;;0.73;;
76035;SDS011;64732;56.314;44.068;2024-02-26T03:26:46;1.35;;;0.82;;
76035;SDS011;64732;56.314;44.068;2024-02-26T03:29:06;1.58;;;0.55;;
76035;SDS011;64732;56.314;44.068;2024-02-26T03:31:27;4.85;;;2.10;;
76035;SDS011;64732;56.314;44.068;2024-02-26T03:33:47;4.45;;;2.05;;
76035;SDS011;64732;56.314;44.068;2024-02-26T03:36:08;1.10;;;0.75;;
76035;SDS011;64732;56.314;44.068;2024-02-26T03:38:29;1.90;;;1.00;;
76035;SDS011;64732;56.314;44.068;2024-02-26T03:40:50;6.43;;;1.58;;
76035;SDS011;64732;56.314;44.068;2024-02-26T03:43:15;3.63;;;1.17;;
76035;SDS011;64732;56.314;44.068;2024-02-26T03:45:35;2.30;;;1.15;;
76035;SDS011;64732;56.314;44.068;2024-02-26T03:47:56;1.08;;;0.82;;
76035;SDS011;64732;56.314;44.068;2024-02-26T03:50:16;2.15;;;1.15;;
76035;SDS011;64732;56.314;44.068;2024-02-26T03:52:37;1.88;;;1.23;;
76035;SDS011;64732;56.314;44.068;2024-02-26T03:54:58;2.80;;;1.48;;
76035;SDS011;64732;56.314;44.068;2024-02-26T03:57:18;8.70;;;2.22;;
76035;SDS011;64732;56.314;44.068;2024-02-26T03:59:42;4.78;;;1.95;;
76035;SDS011;64732;56.314;44.068;2024-02-26T04:02:02;1.60;;;1.02;;
76035;SDS011;64732;56.314;44.068;2024-02-26T04:04:24;3.47;;;1.45;;
76035;SDS011;64732;56.314;44.068;2024-02-26T04:06:45;2.42;;;1.38;;
76035;SDS011;64732;56.314;44.068;2024-02-26T04:09:06;2.53;;;1.38;;
76035;SDS011;64732;56.314;44.068;2024-02-26T04:11:27;3.55;;;1.67;;
76035;SDS011;64732;56.314;44.068;2024-02-26T04:13:47;1.83;;;1.52;;
76035;SDS011;64732;56.314;44.068;2024-02-26T04:16:11;2.17;;;1.35;;
76035;SDS011;64732;56.314;44.068;2024-02-26T04:18:33;1.42;;;0.95;;
76035;SDS011;64732;56.314;44.068;2024-02-26T04:20:53;3.47;;;1.35;;
76035;SDS011;64732;56.314;44.068;2024-02-26T04:23:14;3.17;;;1.42;;
76035;SDS011;64732;56.314;44.068;2024-02-26T04:25:35;3.63;;;1.88;;
76035;SDS011;64732;56.314;44.068;2024-02-26T04:27:56;3.28;;;1.65;;
76035;SDS011;64732;56.314;44.068;2024-02-26T04:30:16;2.45;;;1.20;;
76035;SDS011;64732;56.314;44.068;2024-02-26T04:32:40;1.08;;;0.70;;
76035;SDS011;64732;56.314;44.068;2024-02-26T04:35:00;1.50;;;1.02;;
76035;SDS011;64732;56.314;44.068;2024-02-26T04:37:21;1.35;;;0.65;;
76035;SDS011;64732;56.314;44.068;2024-02-26T04:39:42;4.25;;;1.85;;
76035;SDS011;64732;56.314;44.068;2024-02-26T04:42:02;2.80;;;0.80;;
76035;SDS011;64732;56.314;44.068;2024-02-26T04:44:23;2.35;;;1.60;;
76035;SDS011;64732;56.314;44.068;2024-02-26T04:46:44;1.73;;;1.05;;
76035;SDS011;64732;56.314;44.068;2024-02-26T04:49:07;3.92;;;1.90;;
76035;SDS011;64732;56.314;44.068;2024-02-26T04:51:28;2.38;;;1.38;;
76035;SDS011;64732;56.314;44.068;2024-02-26T04:53:48;3.55;;;1.70;;
76035;SDS011;64732;56.314;44.068;2024-02-26T04:56:09;1.58;;;1.23;;
76035;SDS011;64732;56.314;44.068;2024-02-26T04:58:30;2.80;;;1.67;;
76035;SDS011;64732;56.314;44.068;2024-02-26T05:00:50;3.10;;;1.17;;
76035;SDS011;64732;56.314;44.068;2024-02-26T05:03:11;3.33;;;1.48;;
76035;SDS011;64732;56.314;44.068;2024-02-26T05:05:34;3.70;;;1.60;;
76035;SDS011;64732;56.314;44.068;2024-02-26T05:07:55;3.53;;;1.13;;
76035;SDS011;64732;56.314;44.068;2024-02-26T05:10:15;5.18;;;1.55;;
76035;SDS011;64732;56.314;44.068;2024-02-26T05:12:36;3.88;;;1.67;;
76035;SDS011;64732;56.314;44.068;2024-02-26T05:14:57;3.40;;;2.10;;
76035;SDS011;64732;56.314;44.068;2024-02-26T05:17:17;2.42;;;1.85;;
76035;SDS011;64732;56.314;44.068;2024-02-26T05:19:40;3.20;;;1.70;;
76035;SDS011;64732;56.314;44.068;2024-02-26T05:22:03;1.77;;;0.80;;
76035;SDS011;64732;56.314;44.068;2024-02-26T05:24:24;4.60;;;1.65;;
76035;SDS011;64732;56.314;44.068;2024-02-26T05:26:45;3.92;;;2.05;;
76035;SDS011;64732;56.314;44.068;2024-02-26T05:29:06;2.83;;;1.35;;
76035;SDS011;64732;56.314;44.068;2024-02-26T05:31:26;1.90;;;1.42;;
76035;SDS011;64732;56.314;44.068;2024-02-26T05:33:47;2.90;;;1.50;;
76035;SDS011;64732;56.314;44.068;2024-02-26T05:36:08;3.45;;;1.80;;
76035;SDS011;64732;56.314;44.068;2024-02-26T05:38:31;4.10;;;1.67;;
76035;SDS011;64732;56.314;44.068;2024-02-26T05:40:52;3.10;;;1.73;;
76035;SDS011;64732;56.314;44.068;2024-02-26T05:43:12;5.63;;;2.38;;
76035;SDS011;64732;56.314;44.068;2024-02-26T05:45:33;3.65;;;1.63;;
76035;SDS011;64732;56.314;44.068;2024-02-26T05:47:54;5.82;;;2.25;;
76035;SDS011;64732;56.314;44.068;2024-02-26T05:50:14;7.57;;;2.38;;
76035;SDS011;64732;56.314;44.068;2024-02-26T05:52:35;2.63;;;1.25;;
76035;SDS011;64732;56.314;44.068;2024-02-26T05:54:58;8.32;;;2.28;;
76035;SDS011;64732;56.314;44.068;2024-02-26T05:57:19;3.80;;;1.90;;
76035;SDS011;64732;56.314;44.068;2024-02-26T05:59:39;2.88;;;1.67;;
76035;SDS011;64732;56.314;44.068;2024-02-26T06:02:00;3.95;;;1.75;;
76035;SDS011;64732;56.314;44.068;2024-02-26T06:04:21;4.15;;;1.60;;
76035;SDS011;64732;56.314;44.068;2024-02-26T06:06:41;2.28;;;1.27;;
76035;SDS011;64732;56.314;44.068;2024-02-26T06:09:02;4.97;;;2.30;;
76035;SDS011;64732;56.314;44.068;2024-02-26T06:11:25;5.65;;;2.92;;
76035;SDS011;64732;56.314;44.068;2024-02-26T06:13:46;3.60;;;2.08;;
76035;SDS011;64732;56.314;44.068;2024-02-26T06:16:07;5.10;;;2.20;;
76035;SDS011;64732;56.314;44.068;2024-02-26T06:18:28;4.15;;;1.67;;
76035;SDS011;64732;56.314;44.068;2024-02-26T06:20:49;6.85;;;2.47;;
76035;SDS011;64732;56.314;44.068;2024-02-26T06:23:09;6.63;;;2.22;;
76035;SDS011;64732;56.314;44.068;2024-02-26T06:25:30;3.75;;;1.30;;
76035;SDS011;64732;56.314;44.068;2024-02-26T06:27:53;3.35;;;1.70;;
76035;SDS011;64732;56.314;44.068;2024-02-26T06:30:14;7.22;;;3.20;;
76035;SDS011;64732;56.314;44.068;2024-02-26T06:32:35;7.68;;;3.22;;
76035;SDS011;64732;56.314;44.068;2024-02-26T06:34:55;6.30;;;2.42;;
76035;SDS011;64732;56.314;44.068;2024-02-26T06:37:16;5.57;;;2.17;;
76035;SDS011;64732;56.314;44.068;2024-02-26T06:39:37;6.40;;;3.00;;
76035;SDS011;64732;56.314;44.068;2024-02-26T06:41:57;4.95;;;2.78;;
76035;SDS011;64732;56.314;44.068;2024-02-26T06:44:23;6.70;;;2.67;;
76035;SDS011;64732;56.314;44.068;2024-02-26T06:46:43;6.88;;;1.52;;
76035;SDS011;64732;56.314;44.068;2024-02-26T06:49:04;5.65;;;1.77;;
76035;SDS011;64732;56.314;44.068;2024-02-26T06:51:25;3.80;;;1.92;;
76035;SDS011;64732;56.314;44.068;2024-02-26T06:53:45;8.88;;;2.65;;
76035;SDS011;64732;56.314;44.068;2024-02-26T06:56:06;4.97;;;2.58;;
76035;SDS011;64732;56.314;44.068;2024-02-26T06:58:27;9.30;;;2.83;;
76035;SDS011;64732;56.314;44.068;2024-02-26T07:00:50;5.20;;;1.92;;
76035;SDS011;64732;56.314;44.068;2024-02-26T07:03:10;8.90;;;2.50;;
76035;SDS011;64732;56.314;44.068;2024-02-26T07:05:31;7.65;;;3.13;;
76035;SDS011;64732;56.314;44.068;2024-02-26T07:07:52;7.63;;;3.08;;
76035;SDS011;64732;56.314;44.068;2024-02-26T07:10:12;5.57;;;2.30;;
76035;SDS011;64732;56.314;44.068;2024-02-26T07:12:33;8.02;;;2.63;;
76035;SDS011;64732;56.314;44.068;2024-02-26T07:14:54;10.15;;;2.47;;
76035;SDS011;64732;56.314;44.068;2024-02-26T07:17:17;5.85;;;1.98;;
76035;SDS011;64732;56.314;44.068;2024-02-26T07:19:38;7.80;;;2.53;;
76035;SDS011;64732;56.314;44.068;2024-02-26T07:21:59;7.38;;;3.58;;
76035;SDS011;64732;56.314;44.068;2024-02-26T07:24:19;8.50;;;2.75;;
76035;SDS011;64732;56.314;44.068;2024-02-26T07:26:40;5.85;;;2.03;;
76035;SDS011;64732;56.314;44.068;2024-02-26T07:29:00;11.52;;;2.78;;
76035;SDS011;64732;56.314;44.068;2024-02-26T07:31:21;8.93;;;2.33;;
76035;SDS011;64732;56.314;44.068;2024-02-26T07:33:45;5.70;;;2.60;;
76035;SDS011;64732;56.314;44.068;2024-02-26T07:36:05;3.53;;;1.95;;
76035;SDS011;64732;56.314;44.068;2024-02-26T07:38:26;10.60;;;3.17;;
76035;SDS011;64732;56.314;44.068;2024-02-26T07:40:47;8.75;;;2.67;;
76035;SDS011;64732;56.314;44.068;2024-02-26T07:43:07;9.45;;;3.65;;
76035;SDS011;64732;56.314;44.068;2024-02-26T07:45:28;9.63;;;4.18;;
76035;SDS011;64732;56.314;44.068;2024-02-26T07:47:49;8.93;;;3.45;;
76035;SDS011;64732;56.314;44.068;2024-02-26T07:50:12;9.05;;;3.55;;
76035;SDS011;64732;56.314;44.068;2024-02-26T07:52:33;10.30;;;3.53;;
76035;SDS011;64732;56.314;44.068;2024-02-26T07:54:53;8.30;;;3.65;;
76035;SDS011;64732;56.314;44.068;2024-02-26T07:57:14;7.72;;;3.10;;
76035;SDS011;64732;56.314;44.068;2024-02-26T07:59:35;12.07;;;4.35;;
76035;SDS011;64732;56.314;44.068;2024-02-26T08:01:56;11.63;;;4.10;;
76035;SDS011;64732;56.314;44.068;2024-02-26T08:04:17;11.38;;;3.05;;
76035;SDS011;64732;56.314;44.068;2024-02-26T08:06:40;6.10;;;2.90;;
76035;SDS011;64732;56.314;44.068;2024-02-26T08:09:02;8.70;;;3.75;;
76035;SDS011;64732;56.314;44.068;2024-02-26T08:11:23;14.48;;;3.88;;
76035;SDS011;64732;56.314;44.068;2024-02-26T08:13:44;11.35;;;4.35;;
76035;SDS011;64732;56.314;44.068;2024-02-26T08:16:05;11.38;;;3.63;;
76035;SDS011;64732;56.314;44.068;2024-02-26T08:18:25;6.63;;;2.78;;
76035;SDS011;64732;56.314;44.068;2024-02-26T08:20:46;11.75;;;3.08;;
76035;SDS011;64732;56.314;44.068;2024-02-26T08:23:09;9.38;;;3.95;;
76035;SDS011;64732;56.314;44.068;2024-02-26T08:25:30;12.10;;;3.92;;
76035;SDS011;64732;56.314;44.068;2024-02-26T08:27:50;11.32;;;4.43;;
76035;SDS011;64732;56.314;44.068;2024-02-26T08:30:12;14.13;;;4.03;;
76035;SDS011;64732;56.314;44.068;2024-02-26T08:32:33;10.27;;;3.78;;
76035;SDS011;64732;56.314;44.068;2024-02-26T08:34:53;11.80;;;4.70;;
76035;SDS011;64732;56.314;44.068;2024-02-26T08:37:14;11.55;;;4.20;;
76035;SDS011;64732;56.314;44.068;2024-02-26T08:39:37;8.52;;;4.18;;
76035;SDS011;64732;56.314;44.068;2024-02-26T08:41:58;7.45;;;2.92;;
76035;SDS011;64732;56.314;44.068;2024-02-26T08:44:19;8.80;;;3.50;;
76035;SDS011;64732;56.314;44.068;2024-02-26T08:46:39;13.63;;;3.85;;
76035;SDS011;64732;56.314;44.068;2024-02-26T08:49:00;8.65;;;3.80;;
76035;SDS011;64732;56.314;44.068;2024-02-26T08:51:20;5.88;;;2.92;;
76035;SDS011;64732;56.314;44.068;2024-02-26T08:53:41;7.70;;;3.22;;
76035;SDS011;64732;56.314;44.068;2024-02-26T08:56:05;9.88;;;3.90;;
76035;SDS011;64732;56.314;44.068;2024-02-26T08:58:25;11.10;;;3.92;;
76035;SDS011;64732;56.314;44.068;2024-02-26T09:00:46;7.63;;;3.17;;
76035;SDS011;64732;56.314;44.068;2024-02-26T09:03:07;10.95;;;3.13;;
76035;SDS011;64732;56.314;44.068;2024-02-26T09:05:27;8.60;;;3.72;;
76035;SDS011;64732;56.314;44.068;2024-02-26T09:07:48;10.88;;;2.85;;
76035;SDS011;64732;56.314;44.068;2024-02-26T09:10:09;8.77;;;2.97;;
76035;SDS011;64732;56.314;44.068;2024-02-26T09:12:32;12.48;;;3.50;;
76035;SDS011;64732;56.314;44.068;2024-02-26T09:14:53;9.48;;;3.97;;
76035;SDS011;64732;56.314;44.068;2024-02-26T09:17:13;10.85;;;4.10;;
76035;SDS011;64732;56.314;44.068;2024-02-26T09:19:34;10.10;;;4.28;;
76035;SDS011;64732;56.314;44.068;2024-02-26T09:21:55;13.73;;;5.45;;
76035;SDS011;64732;56.314;44.068;2024-02-26T09:24:15;11.82;;;4.50;;
76035;SDS011;64732;56.314;44.068;2024-02-26T09:26:36;6.38;;;3.00;;
76035;SDS011;64732;56.314;44.068;2024-02-26T09:28:59;11.15;;;4.75;;
76035;SDS011;64732;56.314;44.068;2024-02-26T09:31:20;10.43;;;4.32;;
76035;SDS011;64732;56.314;44.068;2024-02-26T09:33:40;10.45;;;3.78;;
76035;SDS011;64732;56.314;44.068;2024-02-26T09:36:01;12.13;;;3.90;;
76035;SDS011;64732;56.314;44.068;2024-02-26T09:38:22;13.20;;;3.58;;
76035;SDS011;64732;56.314;44.068;2024-02-26T09:40:42;6.85;;;3.50;;
76035;SDS011;64732;56.314;44.068;2024-02-26T09:43:03;8.30;;;3.88;;
76035;SDS011;64732;56.314;44.068;2024-02-26T09:45:28;8.07;;;3.90;;
76035;SDS011;64732;56.314;44.068;2024-02-26T09:47:48;15.52;;;4.05;;
76035;SDS011;64732;56.314;44.068;2024-02-26T09:50:09;7.80;;;3.20;;
76035;SDS011;64732;56.314;44.068;2024-02-26T09:52:30;9.07;;;4.38;;
76035;SDS011;64732;56.314;44.068;2024-02-26T09:54:51;9.02;;;4.05;;
76035;SDS011;64732;56.314;44.068;2024-02-26T09:57:12;7.25;;;3.47;;
76035;SDS011;64732;56.314;44.068;2024-02-26T09:59:39;7.63;;;3.17;;
76035;SDS011;64732;56.314;44.068;2024-02-26T10:02:02;6.20;;;3.13;;
76035;SDS011;64732;56.314;44.068;2024-02-26T10:04:24;10.23;;;4.05;;
76035;SDS011;64732;56.314;44.068;2024-02-26T10:06:44;7.20;;;3.63;;
76035;SDS011;64732;56.314;44.068;2024-02-26T10:09:06;8.18;;;2.60;;
76035;SDS011;64732;56.314;44.068;2024-02-26T10:11:29;6.90;;;3.03;;
76035;SDS011;64732;56.314;44.068;2024-02-26T10:13:50;7.45;;;3.42;;
76035;SDS011;64732;56.314;44.068;2024-02-26T10:16:11;7.88;;;2.83;;
76035;SDS011;64732;56.314;44.068;2024-02-26T10:21:10;5.53;;;2.63;;
76035;SDS011;64732;56.314;44.068;2024-02-26T10:23:31;7.93;;;3.13;;
76035;SDS011;64732;56.314;44.068;2024-02-26T10:25:52;7.05;;;3.15;;
76035;SDS011;64732;56.314;44.068;2024-02-26T10:28:13;10.15;;;2.95;;
76035;SDS011;64732;56.314;44.068;2024-02-26T10:30:36;6.55;;;3.17;;
76035;SDS011;64732;56.314;44.068;2024-02-26T10:32:57;4.18;;;1.98;;
76035;SDS011;64732;56.314;44.068;2024-02-26T10:35:18;6.07;;;2.38;;
76035;SDS011;64732;56.314;44.068;2024-02-26T10:37:41;8.13;;;3.58;;
76035;SDS011;64732;56.314;44.068;2024-02-26T10:40:02;8.90;;;3.47;;
76035;SDS011;64732;56.314;44.068;2024-02-26T10:42:25;6.78;;;2.88;;
76035;SDS011;64732;56.314;44.068;2024-02-26T10:44:46;8.80;;;3.58;;
76035;SDS011;64732;56.314;44.068;2024-02-26T10:47:06;9.48;;;3.20;;
76035;SDS011;64732;56.314;44.068;2024-02-26T10:49:27;9.10;;;3.22;;
76035;SDS011;64732;56.314;44.068;2024-02-26T10:51:49;6.93;;;2.47;;
76035;SDS011;64732;56.314;44.068;2024-02-26T10:54:15;7.40;;;2.78;;
76035;SDS011;64732;56.314;44.068;2024-02-26T10:56:36;9.15;;;4.43;;
76035;SDS011;64732;56.314;44.068;2024-02-26T10:58:57;8.52;;;3.03;;
76035;SDS011;64732;56.314;44.068;2024-02-26T11:01:20;9.13;;;3.50;;
76035;SDS011;64732;56.314;44.068;2024-02-26T11:03:41;7.90;;;2.90;;
76035;SDS011;64732;56.314;44.068;2024-02-26T11:06:02;8.38;;;2.72;;
76035;SDS011;64732;56.314;44.068;2024-02-26T11:08:24;8.23;;;3.72;;
76035;SDS011;64732;56.314;44.068;2024-02-26T11:10:47;7.55;;;3.00;;
76035;SDS011;64732;56.314;44.068;2024-02-26T11:13:12;10.82;;;3.67;;
76035;SDS011;64732;56.314;44.068;2024-02-26T11:15:34;8.50;;;3.45;;
76035;SDS011;64732;56.314;44.068;2024-02-26T11:17:55;7.90;;;3.05;;
76035;SDS011;64732;56.314;44.068;2024-02-26T11:20:16;13.23;;;4.00;;
76035;SDS011;64732;56.314;44.068;2024-02-26T11:22:37;7.03;;;2.78;;
76035;SDS011;64732;56.314;44.068;2024-02-26T11:24:58;9.95;;;2.70;;
76035;SDS011;64732;56.314;44.068;2024-02-26T11:27:22;9.88;;;3.20;;
76035;SDS011;64732;56.314;44.068;2024-02-26T11:29:44;7.97;;;3.65;;
76035;SDS011;64732;56.314;44.068;2024-02-26T11:32:07;6.88;;;2.97;;
76035;SDS011;64732;56.314;44.068;2024-02-26T11:34:27;5.20;;;2.45;;
76035;SDS011;64732;56.314;44.068;2024-02-26T11:36:48;8.43;;;3.38;;
76035;SDS011;64732;56.314;44.068;2024-02-26T11:39:10;7.32;;;2.85;;
76035;SDS011;64732;56.314;44.068;2024-02-26T11:41:31;4.95;;;2.03;;
76035;SDS011;64732;56.314;44.068;2024-02-26T11:43:58;5.47;;;2.85;;
76035;SDS011;64732;56.314;44.068;2024-02-26T11:46:25;6.53;;;2.47;;
76035;SDS011;64732;56.314;44.068;2024-02-26T11:48:45;8.57;;;2.65;;
76035;SDS011;64732;56.314;44.068;2024-02-26T11:51:06;6.93;;;3.13;;
76035;SDS011;64732;56.314;44.068;2024-02-26T11:53:27;9.93;;;3.47;;
76035;SDS011;64732;56.314;44.068;2024-02-26T11:55:48;7.10;;;2.47;;
76035;SDS011;64732;56.314;44.068;2024-02-26T11:58:08;9.70;;;3.22;;
76035;SDS011;64732;56.314;44.068;2024-02-26T12:00:31;11.35;;;3.30;;
76035;SDS011;64732;56.314;44.068;2024-02-26T12:02:52;7.60;;;3.55;;
76035;SDS011;64732;56.314;44.068;2024-02-26T12:05:14;8.20;;;3.45;;
76035;SDS011;64732;56.314;44.068;2024-02-26T12:07:35;11.60;;;4.47;;
76035;SDS011;64732;56.314;44.068;2024-02-26T12:12:30;9.50;;;3.65;;
76035;SDS011;64732;56.314;44.068;2024-02-26T12:14:52;8.35;;;4.00;;
76035;SDS011;64732;56.314;44.068;2024-02-26T12:17:18;6.30;;;2.92;;
76035;SDS011;64732;56.314;44.068;2024-02-26T12:19:39;6.57;;;2.92;;
76035;SDS011;64732;56.314;44.068;2024-02-26T12:22:00;8.07;;;3.13;;
76035;SDS011;64732;56.314;44.068;2024-02-26T12:24:21;13.65;;;4.45;;
76035;SDS011;64732;56.314;44.068;2024-02-26T12:26:41;9.23;;;3.55;;
76035;SDS011;64732;56.314;44.068;2024-02-26T12:29:02;13.55;;;4.00;;
76035;SDS011;64732;56.314;44.068;2024-02-26T12:31:23;9.80;;;3.97;;
76035;SDS011;64732;56.314;44.068;2024-02-26T12:33:46;11.35;;;3.80;;
76035;SDS011;64732;56.314;44.068;2024-02-26T12:36:07;8.95;;;3.72;;
76035;SDS011;64732;56.314;44.068;2024-02-26T12:38:28;8.70;;;2.85;;
76035;SDS011;64732;56.314;44.068;2024-02-26T12:40:48;9.52;;;3.58;;
76035;SDS011;64732;56.314;44.068;2024-02-26T12:43:10;9.48;;;3.42;;
76035;SDS011;64732;56.314;44.068;2024-02-26T12:45:30;10.25;;;4.18;;
76035;SDS011;64732;56.314;44.068;2024-02-26T12:47:51;9.50;;;3.80;;
76035;SDS011;64732;56.314;44.068;2024-02-26T12:50:14;5.03;;;2.88;;
76035;SDS011;64732;56.314;44.068;2024-02-26T12:52:35;9.95;;;2.83;;
76035;SDS011;64732;56.314;44.068;2024-02-26T12:54:56;8.85;;;3.63;;
76035;SDS011;64732;56.314;44.068;2024-02-26T12:57:17;5.10;;;2.50;;
76035;SDS011;64732;56.314;44.068;2024-02-26T12:59:37;10.48;;;3.45;;
76035;SDS011;64732;56.314;44.068;2024-02-26T13:01:58;8.52;;;3.90;;
76035;SDS011;64732;56.314;44.068;2024-02-26T13:04:19;7.30;;;2.70;;
76035;SDS011;64732;56.314;44.068;2024-02-26T13:06:43;9.45;;;2.72;;
76035;SDS011;64732;56.314;44.068;2024-02-26T13:09:03;20.40;;;2.50;;
76035;SDS011;64732;56.314;44.068;2024-02-26T13:11:24;7.05;;;3.72;;
76035;SDS011;64732;56.314;44.068;2024-02-26T13:13:47;7.65;;;2.95;;
76035;SDS011;64732;56.314;44.068;2024-02-26T13:16:10;6.47;;;3.10;;
76035;SDS011;64732;56.314;44.068;2024-02-26T13:18:30;9.48;;;3.42;;
76035;SDS011;64732;56.314;44.068;2024-02-26T13:20:51;7.72;;;2.53;;
76035;SDS011;64732;56.314;44.068;2024-02-26T13:23:14;7.88;;;3.40;;
76035;SDS011;64732;56.314;44.068;2024-02-26T13:25:35;8.90;;;3.53;;
76035;SDS011;64732;56.314;44.068;2024-02-26T13:28:05;9.93;;;3.60;;
76035;SDS011;64732;56.314;44.068;2024-02-26T13:30:26;8.13;;;3.63;;
76035;SDS011;64732;56.314;44.068;2024-02-26T13:32:48;6.50;;;2.28;;
76035;SDS011;64732;56.314;44.068;2024-02-26T13:35:09;14.55;;;3.40;;
76035;SDS011;64732;56.314;44.068;2024-02-26T13:37:30;11.00;;;3.20;;
76035;SDS011;64732;56.314;44.068;2024-02-26T13:39:53;8.35;;;2.70;;
76035;SDS011;64732;56.314;44.068;2024-02-26T13:42:14;6.40;;;3.13;;
76035;SDS011;64732;56.314;44.068;2024-02-26T13:44:34;9.35;;;2.85;;
76035;SDS011;64732;56.314;44.068;2024-02-26T13:46:55;9.52;;;3.08;;
76035;SDS011;64732;56.314;44.068;2024-02-26T13:49:16;7.30;;;3.03;;
76035;SDS011;64732;56.314;44.068;2024-02-26T13:51:36;9.98;;;3.08;;
76035;SDS011;64732;56.314;44.068;2024-02-26T13:53:57;7.03;;;3.17;;
76035;SDS011;64732;56.314;44.068;2024-02-26T13:56:20;7.63;;;3.13;;
76035;SDS011;64732;56.314;44.068;2024-02-26T13:58:41;10.65;;;4.25;;
76035;SDS011;64732;56.314;44.068;2024-02-26T14:01:01;4.40;;;2.75;;
76035;SDS011;64732;56.314;44.068;2024-02-26T14:03:23;5.70;;;2.75;;